Time;durP1;ratioP1;P1;durP2;ratioP2;P2;SDS_P1;SDS_P2;PMS_P1;PMS_P2;Temp;Humidity;BMP_temperature;BMP_pressure;BME280_temperature;BME280_humidity;BME280_pressure;Samples;Min_cycle;Max_cycle;Signal;HPM_P1;HPM_P2
2023/12/14 00:01:29;;;;;;;;;;;;;;;7.33;100.00;100841.88;5012507;28;19964;-64
2023/12/14 00:03:54;;;;;;;;;;;;;;;7.27;100.00;100851.22;5014447;28;19973;-64
2023/12/14 00:06:19;;;;;;;;;;;;;;;7.23;100.00;100851.66;5008939;28;19925;-64
2023/12/14 00:08:45;;;;;;;;;;;;;;;7.21;100.00;100854.44;5024912;28;19921;-63
2023/12/14 00:11:11;;;;;;;;;;;;;;;7.19;100.00;100858.22;5017738;28;19964;-64
2023/12/14 00:13:36;;;;;;;;;;;;;;;7.16;100.00;100872.53;5021000;28;20401;-64
2023/12/14 00:16:01;;;;;;;;;;;;;;;7.11;100.00;100878.28;5016813;28;19964;-64
2023/12/14 00:18:27;;;;;;;;;;;;;;;7.07;100.00;100882.19;5020532;28;19925;-64
2023/12/14 00:20:52;;;;;;;;;;;;;;;7.03;100.00;100885.28;5026430;28;20476;-64
2023/12/14 00:23:18;;;;;;;;;;;;;;;6.99;100.00;100897.09;5008278;28;19932;-64
2023/12/14 00:25:43;;;;;;;;;;;;;;;6.94;100.00;100896.69;5014540;28;19921;-65
2023/12/14 00:28:08;;;;;;;;;;;;;;;6.91;100.00;100908.38;5022336;28;20668;-64
2023/12/14 00:30:33;;;;;;;;;;;;;;;6.87;100.00;100917.56;5014895;28;20457;-63
2023/12/14 00:32:58;;;;;;;;;;;;;;;6.84;100.00;100923.13;5018146;28;19929;-64
2023/12/14 00:35:24;;;;;;;;;;;;;;;6.80;100.00;100933.16;5012549;28;20005;-64
2023/12/14 00:37:49;;;;;;;;;;;;;;;6.74;100.00;100930.25;5016144;28;20364;-64
2023/12/14 00:40:14;;;;;;;;;;;;;;;6.70;100.00;100934.16;5011879;28;19924;-64
2023/12/14 00:42:39;;;;;;;;;;;;;;;6.64;100.00;100940.00;5019344;28;19925;-64
2023/12/14 00:45:04;;;;;;;;;;;;;;;6.62;100.00;100942.78;5017361;28;20402;-64
2023/12/14 00:47:30;;;;;;;;;;;;;;;6.60;100.00;100946.53;5014207;28;19925;-64
2023/12/14 00:49:55;;;;;;;;;;;;;;;6.58;100.00;100951.13;5015127;28;20263;-63
2023/12/14 00:52:20;;;;;;;;;;;;;;;6.56;100.00;100961.81;5017864;28;19981;-64
2023/12/14 00:54:45;;;;;;;;;;;;;;;6.52;100.00;100963.91;5016236;28;19998;-64
2023/12/14 00:57:11;;;;;;;;;;;;;;;6.49;100.00;100964.19;5013509;28;20176;-64
2023/12/14 00:59:36;;;;;;;;;;;;;;;6.46;100.00;100961.84;5018903;28;19917;-64
2023/12/14 01:02:01;;;;;;;;;;;;;;;6.45;100.00;100965.47;5016002;28;19921;-64
2023/12/14 01:04:26;;;;;;;;;;;;;;;6.45;100.00;100972.53;5020157;28;19983;-64
2023/12/14 01:06:51;;;;;;;;;;;;;;;6.44;100.00;100974.34;5015420;28;20048;-64
2023/12/14 01:09:17;;;;;;;;;;;;;;;6.44;100.00;100979.63;5019530;28;19970;-64
2023/12/14 01:11:42;;;;;;;;;;;;;;;6.42;100.00;100978.09;5013040;28;19979;-64
2023/12/14 01:14:07;;;;;;;;;;;;;;;6.40;100.00;100980.03;5014529;28;19921;-64
2023/12/14 01:16:32;;;;;;;;;;;;;;;6.40;100.00;100993.22;5020851;28;20330;-64
2023/12/14 01:18:58;;;;;;;;;;;;;;;6.39;100.00;100991.56;5008819;28;20008;-64
2023/12/14 01:21:24;;;;;;;;;;;;;;;6.40;100.00;101007.25;5020181;28;19917;-64
2023/12/14 01:23:49;;;;;;;;;;;;;;;6.41;100.00;101003.66;5018247;28;20297;-64
2023/12/14 01:26:14;;;;;;;;;;;;;;;6.41;100.00;101016.00;5011536;28;19921;-63
2023/12/14 01:28:39;;;;;;;;;;;;;;;6.38;100.00;101019.75;5017441;28;19925;-64
2023/12/14 01:31:04;;;;;;;;;;;;;;;6.35;100.00;101022.63;5014864;28;19932;-63
2023/12/14 01:33:30;;;;;;;;;;;;;;;6.35;100.00;101024.44;5009924;28;19925;-64
2023/12/14 01:35:55;;;;;;;;;;;;;;;6.31;100.00;101023.88;5019394;28;19917;-63
2023/12/14 01:38:20;;;;;;;;;;;;;;;6.28;100.00;101029.44;5013474;28;20016;-64
2023/12/14 01:40:45;;;;;;;;;;;;;;;6.27;100.00;101030.41;5016701;28;20137;-63
2023/12/14 01:49:16;;;;;;;;;;;;;;;6.26;100.00;101049.84;5014705;28;19924;-63
2023/12/14 01:51:42;;;;;;;;;;;;;;;6.25;100.00;101053.47;5012923;28;19925;-64
2023/12/14 01:54:07;;;;;;;;;;;;;;;6.24;100.00;101053.59;5017720;28;20390;-63
2023/12/14 01:56:32;;;;;;;;;;;;;;;6.23;100.00;101060.69;5022496;28;19940;-63
2023/12/14 01:58:57;;;;;;;;;;;;;;;6.22;100.00;101070.38;5016104;28;20322;-64
2023/12/14 02:01:22;;;;;;;;;;;;;;;6.22;100.00;101069.56;5009782;28;20585;-64
2023/12/14 02:03:52;;;;;;;;;;;;;;;6.21;100.00;101076.63;5022155;28;19924;-63
2023/12/14 02:06:17;;;;;;;;;;;;;;;6.20;100.00;101082.03;5008371;28;19963;-63
2023/12/14 02:08:42;;;;;;;;;;;;;;;6.21;100.00;101086.34;5010971;28;19953;-64
2023/12/14 02:11:08;;;;;;;;;;;;;;;6.20;100.00;101087.31;5021009;28;20016;-64
2023/12/14 02:13:33;;;;;;;;;;;;;;;6.20;100.00;101098.69;5012817;28;20771;-64
2023/12/14 02:15:58;;;;;;;;;;;;;;;6.17;100.00;101098.16;5009573;28;19917;-64
2023/12/14 02:18:24;;;;;;;;;;;;;;;6.15;100.00;101102.72;5018031;28;19970;-64
2023/12/14 02:20:49;;;;;;;;;;;;;;;6.15;100.00;101110.63;5020780;28;19952;-64
2023/12/14 02:23:14;;;;;;;;;;;;;;;6.14;100.00;101111.59;5012228;28;20006;-64
2023/12/14 02:25:39;;;;;;;;;;;;;;;6.11;100.00;101119.78;5014341;28;20434;-64
2023/12/14 02:28:04;;;;;;;;;;;;;;;6.13;100.00;101128.41;5021923;28;19928;-64
2023/12/14 03:40:49;;;;;;;;;;;;;;;5.96;100.00;101218.66;5014231;28;20030;-64
2023/12/14 03:43:15;;;;;;;;;;;;;;;5.95;100.00;101209.06;5017273;28;19928;-63
2023/12/14 03:45:40;;;;;;;;;;;;;;;5.95;100.00;101216.97;5019088;28;19986;-64
2023/12/14 03:48:05;;;;;;;;;;;;;;;5.95;100.00;101214.34;5015612;28;19917;-63
2023/12/14 03:50:31;;;;;;;;;;;;;;;5.95;100.00;101214.34;5016779;28;19929;-64
2023/12/14 03:52:56;;;;;;;;;;;;;;;5.94;100.00;101223.22;5015171;28;19986;-64
2023/12/14 03:55:21;;;;;;;;;;;;;;;5.93;100.00;101232.09;5014078;28;19996;-64
2023/12/14 03:57:46;;;;;;;;;;;;;;;5.91;100.00;101229.59;5018996;28;19928;-64
2023/12/14 04:00:12;;;;;;;;;;;;;;;5.90;100.00;101236.66;5013762;28;19917;-63
2023/12/14 04:02:38;;;;;;;;;;;;;;;5.90;100.00;101236.66;5017559;28;20329;-64
2023/12/14 04:05:03;;;;;;;;;;;;;;;5.90;100.00;101233.19;5019469;28;20554;-63
2023/12/14 04:07:29;;;;;;;;;;;;;;;5.90;100.00;101238.47;5010981;28;19920;-64
2023/12/14 04:09:54;;;;;;;;;;;;;;;5.88;100.00;101241.19;5008138;28;20525;-64
2023/12/14 04:12:19;;;;;;;;;;;;;;;5.88;100.00;101235.09;5013392;28;19921;-63
2023/12/14 04:14:45;;;;;;;;;;;;;;;5.88;100.00;101237.72;5012191;28;20337;-63
2023/12/14 04:17:10;;;;;;;;;;;;;;;5.90;100.00;101241.94;5014239;28;20397;-63
2023/12/14 04:19:37;;;;;;;;;;;;;;;5.91;100.00;101248.03;5016093;28;19970;-63
2023/12/14 04:22:02;;;;;;;;;;;;;;;5.86;100.00;101247.56;5016543;28;20453;-63
2023/12/14 04:24:27;;;;;;;;;;;;;;;5.91;100.00;101258.56;5017217;28;19918;-63
2023/12/14 04:26:53;;;;;;;;;;;;;;;5.93;100.00;101269.00;5014657;28;19917;-64
2023/12/14 04:29:18;;;;;;;;;;;;;;;5.93;100.00;101269.00;5015017;28;19940;-64
2023/12/14 04:31:43;;;;;;;;;;;;;;;5.94;100.00;101284.69;5010835;28;19925;-64
2023/12/14 04:34:11;;;;;;;;;;;;;;;5.96;100.00;101288.00;5023904;28;20484;-63
2023/12/14 04:36:37;;;;;;;;;;;;;;;5.96;100.00;101297.72;5016450;28;19999;-64
2023/12/14 04:39:02;;;;;;;;;;;;;;;5.94;100.00;101297.84;5025613;28;19920;-63
2023/12/14 04:41:27;;;;;;;;;;;;;;;5.96;100.00;101305.63;5012973;28;20503;-64
2023/12/14 04:43:52;;;;;;;;;;;;;;;5.94;100.00;101300.50;5010708;28;20015;-63
2023/12/14 04:46:18;;;;;;;;;;;;;;;5.94;100.00;101310.19;5001971;28;19967;-64
2023/12/14 04:48:43;;;;;;;;;;;;;;;5.94;100.00;101318.09;5002898;28;19925;-63
2023/12/14 04:51:10;;;;;;;;;;;;;;;5.94;100.00;101323.38;5008099;28;19925;-63
2023/12/14 04:53:36;;;;;;;;;;;;;;;5.94;100.00;101323.38;5003049;28;20395;-64
2023/12/14 04:56:01;;;;;;;;;;;;;;;5.93;100.00;101319.91;5010806;28;19963;-64
2023/12/14 04:58:26;;;;;;;;;;;;;;;5.94;100.00;101323.38;5009051;28;19921;-63
2023/12/14 05:00:51;;;;;;;;;;;;;;;5.94;100.00;101326.03;5007829;28;19971;-63
2023/12/14 05:03:16;;;;;;;;;;;;;;;5.93;100.00;101338.38;5015432;28;19917;-64
2023/12/14 05:05:42;;;;;;;;;;;;;;;5.93;100.00;101341.00;5008686;28;19917;-64
2023/12/14 05:08:07;;;;;;;;;;;;;;;5.92;100.00;101347.22;5018309;28;19921;-64
2023/12/14 05:10:32;;;;;;;;;;;;;;;5.93;100.00;101346.28;5015664;28;19921;-64
2023/12/14 05:12:57;;;;;;;;;;;;;;;5.92;100.00;101351.66;5016790;28;20394;-64
2023/12/14 05:15:23;;;;;;;;;;;;;;;5.92;100.00;101365.69;5019106;28;20465;-63
2023/12/14 05:17:48;;;;;;;;;;;;;;;5.93;100.00;101367.34;5015900;28;20541;-64
2023/12/14 05:20:13;;;;;;;;;;;;;;;5.93;100.00;101370.00;5016328;28;19923;-64
2023/12/14 05:22:38;;;;;;;;;;;;;;;5.92;100.00;101381.50;5012579;28;19921;-64
2023/12/14 05:25:04;;;;;;;;;;;;;;;5.93;100.00;101384.97;5018727;28;19917;-63
2023/12/14 05:27:29;;;;;;;;;;;;;;;5.92;100.00;101385.94;5013990;28;19972;-63
2023/12/14 05:29:54;;;;;;;;;;;;;;;5.92;100.00;101385.94;5011810;28;19923;-61
2023/12/14 05:32:19;;;;;;;;;;;;;;;5.91;100.00;101400.91;5010398;28;19928;-62
2023/12/14 05:34:45;;;;;;;;;;;;;;;5.90;100.00;101402.72;5013674;28;19917;-61
2023/12/14 05:37:10;;;;;;;;;;;;;;;5.88;100.00;101407.25;5016398;28;19921;-61
2023/12/14 05:39:35;;;;;;;;;;;;;;;5.88;100.00;101430.97;5006003;28;19917;-61
2023/12/14 05:42:00;;;;;;;;;;;;;;;5.87;100.00;101421.38;5016068;28;19921;-61
2023/12/14 05:44:25;;;;;;;;;;;;;;;5.86;100.00;101435.53;5007060;28;19948;-61
2023/12/14 05:46:51;;;;;;;;;;;;;;;5.85;100.00;101435.66;5019187;28;19917;-62
2023/12/14 05:49:16;;;;;;;;;;;;;;;5.83;100.00;101441.06;5007681;28;19924;-61
2023/12/14 05:51:42;;;;;;;;;;;;;;;5.81;100.00;101440.34;5014051;28;20691;-61
2023/12/14 05:54:07;;;;;;;;;;;;;;;5.80;100.00;101457.13;5010374;28;19918;-61
2023/12/14 05:56:32;;;;;;;;;;;;;;;5.80;100.00;101453.66;5016583;28;19917;-62
2023/12/14 05:58:57;;;;;;;;;;;;;;;5.80;100.00;101464.19;5007329;28;20636;-62
2023/12/14 06:01:23;;;;;;;;;;;;;;;5.80;100.00;101470.31;5009558;28;19916;-62
2023/12/14 06:03:48;;;;;;;;;;;;;;;5.81;100.00;101465.88;5011573;28;19964;-62
2023/12/14 06:06:14;;;;;;;;;;;;;;;5.82;100.00;101467.53;5018021;28;19928;-61
2023/12/14 06:08:39;;;;;;;;;;;;;;;5.79;100.00;101470.44;5015649;28;19924;-61
2023/12/14 06:11:06;;;;;;;;;;;;;;;5.81;100.00;101479.88;5015063;28;19924;-62
2023/12/14 06:13:31;;;;;;;;;;;;;;;5.81;100.00;101477.25;5013597;28;20020;-61
2023/12/14 06:15:56;;;;;;;;;;;;;;;5.82;100.00;101484.19;5011583;28;20001;-61
2023/12/14 06:18:21;;;;;;;;;;;;;;;5.82;100.00;101489.47;5014545;28;19923;-61
2023/12/14 06:20:47;;;;;;;;;;;;;;;5.85;100.00;101483.09;5012402;28;19979;-61
2023/12/14 06:23:12;;;;;;;;;;;;;;;5.86;100.00;101497.97;5016802;28;19963;-62
2023/12/14 06:25:37;;;;;;;;;;;;;;;5.85;100.00;101499.75;5014857;28;19918;-61
2023/12/14 06:28:03;;;;;;;;;;;;;;;5.83;100.00;101506.94;5017523;28;19953;-64
2023/12/14 06:30:28;;;;;;;;;;;;;;;5.81;100.00;101503.59;5011866;28;19924;-64
2023/12/14 06:32:53;;;;;;;;;;;;;;;5.79;100.00;101515.22;5013187;28;19917;-64
2023/12/14 06:35:18;;;;;;;;;;;;;;;5.77;100.00;101517.97;5013863;28;20020;-64
2023/12/14 06:37:43;;;;;;;;;;;;;;;5.71;100.00;101514.97;5016885;28;19927;-64
2023/12/14 06:40:09;;;;;;;;;;;;;;;5.69;100.00;101516.91;5008776;28;19917;-64
2023/12/14 06:42:34;;;;;;;;;;;;;;;5.65;100.00;101529.50;5012215;28;19918;-65
2023/12/14 06:45:02;;;;;;;;;;;;;;;5.62;100.00;101524.47;5014657;28;19927;-64
2023/12/14 06:47:27;;;;;;;;;;;;;;;5.59;100.00;101527.34;5007359;28;20526;-64
2023/12/14 06:49:52;;;;;;;;;;;;;;;5.58;100.00;101536.22;5012885;28;20623;-64
2023/12/14 06:52:18;;;;;;;;;;;;;;;5.57;100.00;101537.16;5015754;28;19921;-64
2023/12/14 06:54:43;;;;;;;;;;;;;;;5.56;100.00;101535.50;5008094;28;19914;-64
2023/12/14 06:57:08;;;;;;;;;;;;;;;5.55;100.00;101545.19;5007512;28;19956;-64
2023/12/14 06:59:33;;;;;;;;;;;;;;;5.56;100.00;101553.94;5003584;28;20504;-64
2023/12/14 07:01:59;;;;;;;;;;;;;;;5.55;100.00;101560.16;5005698;28;19920;-65
2023/12/14 07:04:24;;;;;;;;;;;;;;;5.55;100.00;101565.44;5012080;28;19921;-65
2023/12/14 07:06:50;;;;;;;;;;;;;;;5.55;100.00;101568.06;5014171;28;19918;-64
2023/12/14 07:09:15;;;;;;;;;;;;;;;5.55;100.00;101568.06;5012184;28;19984;-65
2023/12/14 07:11:40;;;;;;;;;;;;;;;5.52;100.00;101569.16;5010975;28;20394;-64
2023/12/14 07:14:05;;;;;;;;;;;;;;;5.47;100.00;101567.81;5016409;28;20378;-64
2023/12/14 07:16:30;;;;;;;;;;;;;;;5.52;100.00;101581.50;5005578;28;19921;-64
2023/12/14 07:18:56;;;;;;;;;;;;;;;5.51;100.00;101588.56;5017512;28;19917;-64
2023/12/14 07:21:22;;;;;;;;;;;;;;;5.50;100.00;101593.94;5013394;28;19964;-64
2023/12/14 07:23:47;;;;;;;;;;;;;;;5.50;100.00;101597.41;5010109;28;19996;-64
2023/12/14 07:26:12;;;;;;;;;;;;;;;5.49;100.00;101610.69;5015567;28;20028;-64
2023/12/14 07:28:37;;;;;;;;;;;;;;;5.45;100.00;101611.88;5012953;28;19925;-64
2023/12/14 07:31:03;;;;;;;;;;;;;;;5.43;100.00;101616.44;5002875;28;19924;-64
2023/12/14 07:33:28;;;;;;;;;;;;;;;5.42;100.00;101617.38;5018998;28;19920;-64
2023/12/14 07:35:53;;;;;;;;;;;;;;;5.42;100.00;101622.66;5010234;28;19952;-64
2023/12/14 07:38:18;;;;;;;;;;;;;;;5.40;100.00;101625.41;5013910;28;19974;-65
2023/12/14 07:40:45;;;;;;;;;;;;;;;5.40;100.00;101627.19;5010466;28;20011;-64
2023/12/14 07:43:10;;;;;;;;;;;;;;;5.38;100.00;101634.38;5014243;28;19917;-64
2023/12/14 07:45:35;;;;;;;;;;;;;;;5.35;100.00;101643.34;5005256;28;19975;-65
2023/12/14 07:48:01;;;;;;;;;;;;;;;5.33;100.00;101647.06;5014288;28;19925;-64
2023/12/14 07:50:26;;;;;;;;;;;;;;;5.32;100.00;101650.66;5010384;28;19921;-64
2023/12/14 07:52:52;;;;;;;;;;;;;;;5.32;100.00;101654.13;5010170;28;20345;-62
2023/12/14 07:55:18;;;;;;;;;;;;;;;5.34;100.00;101664.53;5006523;28;19925;-62
2023/12/14 07:57:44;;;;;;;;;;;;;;;5.34;100.00;101673.28;5003108;28;21184;-62
2023/12/14 08:00:10;;;;;;;;;;;;;;;5.33;100.00;101665.50;5006382;28;20003;-62
2023/12/14 08:02:35;;;;;;;;;;;;;;;5.33;100.00;101673.41;5011004;28;19952;-62
2023/12/14 08:05:00;;;;;;;;;;;;;;;5.33;100.00;101670.78;5014047;28;19927;-62
2023/12/14 08:07:28;;;;;;;;;;;;;;;5.31;100.00;101676.16;5003962;28;19913;-62
2023/12/14 08:09:54;;;;;;;;;;;;;;;5.30;100.00;101682.38;5015928;28;20305;-63
2023/12/14 08:12:21;;;;;;;;;;;;;;;5.26;100.00;101676.50;5013604;28;19925;-62
2023/12/14 08:14:46;;;;;;;;;;;;;;;5.26;100.00;101680.94;5015369;28;20361;-62
2023/12/14 08:17:11;;;;;;;;;;;;;;;5.24;100.00;101681.06;5012552;28;20016;-62
2023/12/14 08:19:36;;;;;;;;;;;;;;;5.25;100.00;101690.63;5023759;28;19974;-62
2023/12/14 08:22:02;;;;;;;;;;;;;;;5.25;100.00;101690.63;5014555;28;19925;-63
2023/12/14 08:24:27;;;;;;;;;;;;;;;5.26;100.00;101704.63;5017262;28;19921;-62
2023/12/14 08:26:52;;;;;;;;;;;;;;;5.24;100.00;101704.75;5014374;28;19921;-62
2023/12/14 08:29:18;;;;;;;;;;;;;;;5.24;100.00;101712.66;5015036;28;19917;-62
2023/12/14 08:31:43;;;;;;;;;;;;;;;5.22;100.00;101714.56;5023020;28;19917;-62
2023/12/14 08:34:08;;;;;;;;;;;;;;;5.22;100.00;101725.09;5025891;28;20418;-62
2023/12/14 08:36:34;;;;;;;;;;;;;;;5.22;100.00;101722.47;5008346;28;19920;-62
2023/12/14 08:38:59;;;;;;;;;;;;;;;5.24;100.00;101736.34;5009194;28;19960;-62
2023/12/14 08:41:25;;;;;;;;;;;;;;;5.24;100.00;101743.41;5013370;28;19917;-62
2023/12/14 08:43:50;;;;;;;;;;;;;;;5.24;100.00;101753.94;5024674;28;19917;-62
2023/12/14 08:46:15;;;;;;;;;;;;;;;5.23;100.00;101757.53;5023508;28;20008;-62
2023/12/14 08:48:40;;;;;;;;;;;;;;;5.22;100.00;101759.31;5020373;28;19917;-62
2023/12/14 08:51:06;;;;;;;;;;;;;;;5.23;100.00;101749.63;5016959;28;20024;-62
2023/12/14 08:53:31;;;;;;;;;;;;;;;5.25;100.00;101748.56;5034204;28;19921;-63
2023/12/14 08:55:56;;;;;;;;;;;;;;;5.28;100.00;101743.06;5021532;28;20028;-62
2023/12/14 08:58:22;;;;;;;;;;;;;;;5.31;100.00;101752.53;5021368;28;19917;-62
2023/12/14 09:00:47;;;;;;;;;;;;;;;5.34;100.00;101756.72;5027448;28;20055;-62
2023/12/14 09:03:12;;;;;;;;;;;;;;;5.36;100.00;101762.72;5021865;28;19917;-62
2023/12/14 09:05:41;;;;;;;;;;;;;;;5.37;100.00;101765.22;5011629;28;20390;-62
2023/12/14 09:08:07;;;;;;;;;;;;;;;5.38;100.00;101776.63;5030435;28;19924;-62
2023/12/14 09:10:33;;;;;;;;;;;;;;;5.40;100.00;101782.59;5022426;28;19925;-63
2023/12/14 09:13:00;;;;;;;;;;;;;;;5.40;100.00;101782.59;5016034;28;19944;-63
2023/12/14 09:15:25;;;;;;;;;;;;;;;5.40;100.00;101787.88;5015700;28;19917;-62
2023/12/14 09:17:50;;;;;;;;;;;;;;;5.39;100.00;101796.72;5016067;28;19917;-62
2023/12/14 09:20:16;;;;;;;;;;;;;;;5.41;100.00;101805.34;5011252;28;19967;-62
2023/12/14 09:22:41;;;;;;;;;;;;;;;5.40;100.00;101811.56;5023316;28;19917;-62
2023/12/14 09:25:07;;;;;;;;;;;;;;;5.38;100.00;101816.13;5014423;28;20476;-62
2023/12/14 09:27:32;;;;;;;;;;;;;;;5.34;100.00;101815.50;5018671;28;19925;-62
2023/12/14 09:29:57;;;;;;;;;;;;;;;5.35;100.00;101821.63;5018184;28;19924;-62
2023/12/14 09:32:23;;;;;;;;;;;;;;;5.34;100.00;101828.69;5013369;28;20367;-62
2023/12/14 09:34:48;;;;;;;;;;;;;;;5.33;100.00;101832.25;5011738;28;19913;-62
2023/12/14 09:37:14;;;;;;;;;;;;;;;5.33;100.00;101836.69;5020981;28;19959;-62
2023/12/14 09:39:39;;;;;;;;;;;;;;;5.30;100.00;101840.41;5020503;28;20547;-62
2023/12/14 09:42:05;;;;;;;;;;;;;;;5.27;100.00;101852.00;5021996;28;19917;-62
2023/12/14 09:44:31;;;;;;;;;;;;;;;5.27;100.00;101849.34;5019289;28;19963;-62
2023/12/14 09:46:59;;;;;;;;;;;;;;;5.25;100.00;101848.63;5009945;28;19913;-62
2023/12/14 09:49:29;;;;;;;;;;;;;;;5.24;100.00;101859.28;5020848;28;19959;-62
2023/12/14 09:51:54;;;;;;;;;;;;;;;5.20;100.00;101856.03;5022306;28;19971;-62
2023/12/14 09:54:19;;;;;;;;;;;;;;;5.21;100.00;101859.50;5024148;28;19925;-63
2023/12/14 09:56:46;;;;;;;;;;;;;;;5.19;100.00;101870.13;5009823;28;20362;-62
2023/12/14 09:59:11;;;;;;;;;;;;;;;5.17;100.00;101869.38;5010404;28;19923;-62
2023/12/14 10:01:36;;;;;;;;;;;;;;;5.16;100.00;101875.59;5009342;28;19917;-62
2023/12/14 10:04:12;;;;;;;;;;;;;;;5.15;100.00;101884.47;5018410;28;20011;-62
2023/12/14 10:06:38;;;;;;;;;;;;;;;5.12;100.00;101886.47;5015500;28;19917;-62
2023/12/14 10:09:04;;;;;;;;;;;;;;;5.10;100.00;101899.75;5015332;28;20029;-62
2023/12/14 10:11:29;;;;;;;;;;;;;;;5.08;100.00;101904.28;5009120;28;19918;-63
2023/12/14 10:13:55;;;;;;;;;;;;;;;5.06;100.00;101900.91;5020543;28;19917;-62
2023/12/14 10:16:31;;;;;;;;;;;;;;;5.05;100.00;101904.50;5012137;28;19917;-63
2023/12/14 10:18:57;;;;;;;;;;;;;;;5.06;100.00;101913.25;5016629;28;19917;-62
2023/12/14 10:21:23;;;;;;;;;;;;;;;5.05;100.00;101914.19;5019908;28;19994;-62
2023/12/14 10:23:48;;;;;;;;;;;;;;;5.03;100.00;101914.31;5009495;28;19941;-62
2023/12/14 10:26:14;;;;;;;;;;;;;;;5.04;100.00;101923.88;5026402;28;19993;-62
2023/12/14 10:28:39;;;;;;;;;;;;;;;5.06;100.00;101918.50;5016531;28;20389;-62
2023/12/14 10:31:05;;;;;;;;;;;;;;;5.07;100.00;101918.41;5016518;28;20110;-62
2023/12/14 10:33:30;;;;;;;;;;;;;;;5.06;100.00;101913.25;5019886;28;19921;-62
2023/12/14 10:35:56;;;;;;;;;;;;;;;5.11;100.00;101916.38;5023438;28;19918;-62
2023/12/14 10:38:24;;;;;;;;;;;;;;;5.16;100.00;101911.63;5023918;28;19967;-63
2023/12/14 10:40:50;;;;;;;;;;;;;;;5.20;100.00;101913.97;5016915;28;19924;-62
2023/12/14 10:43:15;;;;;;;;;;;;;;;5.23;100.00;101908.47;5027634;28;19929;-62
2023/12/14 10:45:43;;;;;;;;;;;;;;;5.24;100.00;101918.06;5011338;28;19917;-62
2023/12/14 10:48:09;;;;;;;;;;;;;;;5.27;100.00;101925.72;5005386;28;19964;-62
2023/12/14 10:50:36;;;;;;;;;;;;;;;5.32;100.00;101919.28;5005085;28;19921;-62
2023/12/14 10:53:03;;;;;;;;;;;;;;;5.38;100.00;101926.75;5004504;28;19920;-62
2023/12/14 10:55:33;;;;;;;;;;;;;;;5.44;100.00;101927.13;5014658;28;20433;-62
2023/12/14 10:57:58;;;;;;;;;;;;;;;5.50;100.00;101933.78;5013558;28;19940;-62
2023/12/14 11:00:23;;;;;;;;;;;;;;;5.52;100.00;101932.72;5009897;28;19983;-62
2023/12/14 11:02:49;;;;;;;;;;;;;;;5.54;100.00;101925.53;5009929;28;19914;-62
2023/12/14 11:05:22;;;;;;;;;;;;;;;5.57;100.00;101927.13;5005550;28;19913;-62
2023/12/14 11:07:55;;;;;;;;;;;;;;;5.61;100.00;101923.28;5005754;28;19968;-62
2023/12/14 11:10:26;;;;;;;;;;;;;;;5.66;100.00;101934.34;5012733;28;19995;-62
2023/12/14 11:13:12;;;;;;;;;;;;;;;5.70;100.00;101940.22;5009665;28;19917;-62
2023/12/14 11:15:37;;;;;;;;;;;;;;;5.73;100.00;101943.47;5019502;28;19917;-62
2023/12/14 11:18:08;;;;;;;;;;;;;;;5.75;100.00;101949.47;5020680;28;20544;-62
2023/12/14 11:20:45;;;;;;;;;;;;;;;5.77;100.00;101952.00;5004810;28;19963;-62
2023/12/14 11:23:31;;;;;;;;;;;;;;;5.77;100.00;101963.38;5014561;28;19964;-62
2023/12/14 11:26:02;;;;;;;;;;;;;;;5.82;100.00;101966.53;5017726;28;20175;-62
2023/12/14 11:28:28;;;;;;;;;;;;;;;5.83;100.00;101970.84;5007744;28;19925;-62
2023/12/14 11:30:54;;;;;;;;;;;;;;;5.86;100.00;101969.78;5017977;28;19918;-62
2023/12/14 11:33:19;;;;;;;;;;;;;;;5.87;100.00;101971.47;5021964;28;19913;-62
2023/12/14 11:35:44;;;;;;;;;;;;;;;5.90;100.00;101976.56;5015404;28;19964;-62
2023/12/14 11:38:15;;;;;;;;;;;;;;;5.91;100.00;101980.88;5010947;28;20283;-63
2023/12/14 11:40:41;;;;;;;;;;;;;;;5.92;100.00;101989.63;5015877;28;19921;-63
2023/12/14 11:43:08;;;;;;;;;;;;;;;5.91;100.00;101978.22;5009001;28;20047;-62
2023/12/14 11:45:37;;;;;;;;;;;;;;;5.96;100.00;101973.44;5012632;28;19933;-62
2023/12/14 11:48:06;;;;;;;;;;;;;;;6.05;99.87;101979.84;5023148;28;19928;-62
2023/12/14 11:50:32;;;;;;;;;;;;;;;6.12;99.83;101979.28;5020103;28;19928;-63
2023/12/14 11:52:57;;;;;;;;;;;;;;;6.18;99.67;101975.34;5013970;28;19913;-62
2023/12/14 11:55:22;;;;;;;;;;;;;;;6.26;99.52;101982.69;5014922;28;19918;-62
2023/12/14 11:57:48;;;;;;;;;;;;;;;6.32;99.21;101975.16;5012297;28;19929;-62
2023/12/14 12:00:14;;;;;;;;;;;;;;;6.42;99.38;101973.53;5008409;28;19918;-62
2023/12/14 12:02:40;;;;;;;;;;;;;;;6.52;99.41;101971.84;5010548;28;19929;-62
2023/12/14 12:05:05;;;;;;;;;;;;;;;6.59;98.76;101971.38;5011121;28;19920;-62
2023/12/14 12:07:31;;;;;;;;;;;;;;;6.65;99.05;101984.97;5013457;28;19917;-63
2023/12/14 12:09:56;;;;;;;;;;;;;;;6.64;98.27;101977.16;5011082;28;19953;-62
2023/12/14 12:12:22;;;;;;;;;;;;;;;6.61;97.70;101978.22;5015215;28;19933;-62
2023/12/14 12:14:49;;;;;;;;;;;;;;;6.59;97.05;101981.94;5020421;28;19918;-62
2023/12/14 12:17:15;;;;;;;;;;;;;;;6.60;97.18;101980.97;5021233;28;20481;-62
2023/12/14 12:19:42;;;;;;;;;;;;;;;6.62;97.29;101981.69;5025103;28;19936;-63
2023/12/14 12:22:07;;;;;;;;;;;;;;;6.64;97.28;101979.78;5014746;28;19960;-62
2023/12/14 12:24:33;;;;;;;;;;;;;;;6.65;96.65;101986.75;5023228;28;19960;-62
2023/12/14 12:26:58;;;;;;;;;;;;;;;6.66;96.53;101993.72;5026145;28;19917;-62
2023/12/14 12:29:23;;;;;;;;;;;;;;;6.64;96.59;101998.25;5024618;28;19968;-62
2023/12/14 12:31:48;;;;;;;;;;;;;;;6.59;96.83;102003.06;5012600;28;19952;-62
2023/12/14 12:34:13;;;;;;;;;;;;;;;6.51;96.41;102003.63;5029423;28;19916;-62
2023/12/14 12:36:39;;;;;;;;;;;;;;;6.39;96.27;102005.41;5012185;28;19928;-63
2023/12/14 12:39:06;;;;;;;;;;;;;;;6.32;95.65;102006.81;5023229;28;20007;-63
2023/12/14 12:41:31;;;;;;;;;;;;;;;6.27;96.03;102011.59;5017662;28;19918;-62
2023/12/14 12:43:57;;;;;;;;;;;;;;;6.24;95.83;102009.19;5024132;28;19960;-62
2023/12/14 12:46:22;;;;;;;;;;;;;;;6.21;95.58;102017.31;5018213;28;19921;-62
2023/12/14 12:48:47;;;;;;;;;;;;;;;6.19;95.86;102020.06;5015678;28;19923;-62
2023/12/14 12:51:13;;;;;;;;;;;;;;;6.16;95.80;102022.09;5020956;28;19926;-62
2023/12/14 12:53:38;;;;;;;;;;;;;;;6.13;95.37;102017.06;5020137;28;20502;-62
2023/12/14 12:56:04;;;;;;;;;;;;;;;6.10;95.60;102006.75;5007894;28;20290;-63
2023/12/14 12:58:29;;;;;;;;;;;;;;;6.11;95.62;102011.91;5014475;28;19964;-62
2023/12/14 13:00:55;;;;;;;;;;;;;;;6.07;95.65;102018.34;5015135;28;19933;-63
2023/12/14 13:03:20;;;;;;;;;;;;;;;6.04;95.69;102013.28;5008230;28;19918;-62
2023/12/14 13:05:46;;;;;;;;;;;;;;;6.03;95.88;102019.50;5012916;28;20035;-62
2023/12/14 13:08:11;;;;;;;;;;;;;;;5.97;96.60;102025.22;5020336;28;19921;-62
2023/12/14 13:10:38;;;;;;;;;;;;;;;5.94;96.16;102024.63;5017070;28;20067;-62
2023/12/14 13:13:04;;;;;;;;;;;;;;;5.93;96.19;102026.41;5012614;28;19925;-63
2023/12/14 13:15:30;;;;;;;;;;;;;;;5.87;95.85;102032.94;5020998;28;20294;-62
2023/12/14 13:17:56;;;;;;;;;;;;;;;5.88;95.82;102031.16;5019571;28;19923;-62
2023/12/14 13:20:21;;;;;;;;;;;;;;;5.87;96.32;102026.84;5013236;28;19914;-62
2023/12/14 13:22:46;;;;;;;;;;;;;;;5.82;95.79;102037.72;5021252;28;20297;-62
2023/12/14 13:25:12;;;;;;;;;;;;;;;5.79;95.43;102032.66;5011449;28;20060;-62
2023/12/14 13:27:37;;;;;;;;;;;;;;;5.77;95.19;102038.97;5005720;28;20391;-63
2023/12/14 13:30:04;;;;;;;;;;;;;;;5.77;95.48;102045.09;5014007;28;20409;-62
2023/12/14 13:32:29;;;;;;;;;;;;;;;5.74;95.72;102055.00;5013575;28;19921;-63
2023/12/14 13:34:54;;;;;;;;;;;;;;;5.71;96.47;102048.16;5009028;28;19972;-62
2023/12/14 13:37:19;;;;;;;;;;;;;;;5.66;96.74;102052.06;5022875;28;19917;-62
2023/12/14 13:39:44;;;;;;;;;;;;;;;5.66;96.69;102066.09;5014131;28;20291;-63
2023/12/14 13:42:09;;;;;;;;;;;;;;;5.67;96.96;102070.41;5014671;28;19956;-62
2023/12/14 13:44:35;;;;;;;;;;;;;;;5.69;97.00;102071.16;5011631;28;20884;-63
2023/12/14 13:47:01;;;;;;;;;;;;;;;5.65;97.00;102074.97;5014523;28;20016;-62